createdAt,value
2022-09-06T00:02:19.067Z,4.40
2022-09-06T00:04:45.469Z,5.20
2022-09-06T00:07:11.981Z,5.43
2022-09-06T00:09:38.376Z,5.20
2022-09-06T00:12:04.945Z,4.93
2022-09-06T00:14:31.346Z,4.82
2022-09-06T00:16:57.737Z,4.97
2022-09-06T00:19:24.142Z,4.80
2022-09-06T00:21:50.547Z,5.20
2022-09-06T00:24:16.933Z,5.18
2022-09-06T00:26:43.369Z,4.82
2022-09-06T00:29:09.859Z,5.03
2022-09-06T00:31:36.354Z,4.60
2022-09-06T00:34:02.893Z,4.65
2022-09-06T00:36:29.316Z,4.97
2022-09-06T00:38:56.400Z,7.55
2022-09-06T00:41:22.793Z,5.80
2022-09-06T00:43:49.224Z,5.70
2022-09-06T00:46:18.495Z,6.30
2022-09-06T00:48:45.486Z,6.68
2022-09-06T00:51:13.302Z,6.53
2022-09-06T00:53:39.965Z,6.30
2022-09-06T00:56:06.537Z,6.65
2022-09-06T00:58:33.127Z,7.05
2022-09-06T01:00:59.584Z,6.57
2022-09-06T01:03:26.357Z,6.43
2022-09-06T01:06:14.690Z,6.30
2022-09-06T01:09:05.746Z,7.88
2022-09-06T01:11:56.493Z,7.75
2022-09-06T01:14:44.689Z,8.43
2022-09-06T01:17:19.053Z,8.25
2022-09-06T01:20:27.172Z,7.75
2022-09-06T01:23:06.963Z,9.10
2022-09-06T01:25:59.916Z,9.23
2022-09-06T01:28:45.365Z,9.20
2022-09-06T01:31:48.382Z,9.27
2022-09-06T01:34:21.741Z,8.93
2022-09-06T01:37:09.004Z,7.97
2022-09-06T01:39:37.393Z,7.45
2022-09-06T01:42:15.621Z,7.00
2022-09-06T01:44:53.649Z,6.78
2022-09-06T01:47:25.133Z,6.15
2022-09-06T01:50:24.109Z,6.07
2022-09-06T01:52:56.319Z,5.50
2022-09-06T01:56:07.706Z,5.30
2022-09-06T01:58:59.981Z,5.25
2022-09-06T02:01:49.577Z,5.03
2022-09-06T02:04:34.055Z,5.45
2022-09-06T02:07:03.366Z,5.32
2022-09-06T02:09:34.985Z,5.38
2022-09-06T02:12:02.567Z,5.95
2022-09-06T02:14:36.206Z,5.72
2022-09-06T02:17:05.060Z,5.30
2022-09-06T02:19:43.259Z,5.47
2022-09-06T02:22:12.181Z,6.05
2022-09-06T02:24:40.650Z,6.25
2022-09-06T02:27:07.672Z,6.22
2022-09-06T02:29:34.842Z,6.18
2022-09-06T02:32:08.354Z,6.38
2022-09-06T02:34:37.960Z,6.00
2022-09-06T02:37:05.037Z,6.75
2022-09-06T02:39:31.475Z,5.80
2022-09-06T02:41:58.485Z,5.72
2022-09-06T02:44:24.881Z,6.38
2022-09-06T02:46:55.053Z,6.00
2022-09-06T02:49:23.864Z,6.05
2022-09-06T02:51:50.849Z,6.65
2022-09-06T02:54:17.229Z,6.43
2022-09-06T02:56:43.627Z,6.35
2022-09-06T02:59:10.028Z,6.47
2022-09-06T03:01:36.451Z,6.20
2022-09-06T03:04:03.051Z,6.20
2022-09-06T03:06:30.397Z,6.70
2022-09-06T03:08:56.832Z,6.82
2022-09-06T03:11:23.223Z,6.60
2022-09-06T03:13:51.021Z,7.00
2022-09-06T03:16:17.490Z,7.18
2022-09-06T03:18:43.992Z,7.22
2022-09-06T03:21:10.620Z,7.68
2022-09-06T03:23:38.844Z,7.13
2022-09-06T03:26:06.300Z,7.85
2022-09-06T03:28:32.703Z,7.93
2022-09-06T03:30:59.213Z,7.93
2022-09-06T03:33:25.748Z,7.30
2022-09-06T03:35:57.615Z,8.10
2022-09-06T03:38:25.126Z,7.35
2022-09-06T03:40:52.863Z,7.68
2022-09-06T03:43:19.823Z,8.02
2022-09-06T03:45:48.130Z,7.90
2022-09-06T03:48:15.388Z,7.28
2022-09-06T03:50:46.173Z,7.75
2022-09-06T03:53:12.920Z,7.65
2022-09-06T03:55:39.454Z,8.20
2022-09-06T03:58:05.876Z,7.93
2022-09-06T04:00:33.533Z,7.57
2022-09-06T04:03:01.930Z,7.20
2022-09-06T04:05:28.490Z,6.75
2022-09-06T04:07:54.923Z,6.82
2022-09-06T04:10:21.428Z,6.88
2022-09-06T04:12:47.926Z,6.97
2022-09-06T04:15:14.371Z,7.38
2022-09-06T04:17:45.093Z,7.13
2022-09-06T04:20:12.466Z,8.27
2022-09-06T04:22:39.098Z,7.00
2022-09-06T04:25:06.027Z,6.43
2022-09-06T04:27:32.817Z,6.38
2022-09-06T04:29:59.222Z,6.85
2022-09-06T04:32:25.604Z,6.45
2022-09-06T04:34:51.987Z,6.10
2022-09-06T04:37:20.012Z,5.85
2022-09-06T04:39:47.064Z,6.00
2022-09-06T04:42:13.487Z,5.45
2022-09-06T04:44:39.929Z,5.43
2022-09-06T04:47:12.600Z,5.93
2022-09-06T04:49:38.992Z,5.85
2022-09-06T04:52:05.393Z,5.63
2022-09-06T04:54:31.893Z,5.63
2022-09-06T04:56:58.299Z,6.40
2022-09-06T04:59:24.865Z,5.88
2022-09-06T05:01:51.494Z,5.75
2022-09-06T05:04:17.960Z,5.78
2022-09-06T05:06:44.921Z,6.07
2022-09-06T05:09:11.779Z,6.47
2022-09-06T05:11:38.173Z,5.80
2022-09-06T05:14:04.739Z,6.80
2022-09-06T05:16:31.213Z,6.40
2022-09-06T05:18:57.769Z,6.50
2022-09-06T05:21:24.216Z,6.38
2022-09-06T05:23:52.596Z,6.95
2022-09-06T05:26:20.735Z,6.93
2022-09-06T05:28:47.312Z,7.20
2022-09-06T05:31:25.918Z,6.75
2022-09-06T05:33:53.495Z,7.47
2022-09-06T05:36:20.502Z,7.85
2022-09-06T05:38:46.892Z,7.28
2022-09-06T05:41:13.322Z,6.45
2022-09-06T05:43:39.882Z,6.75
2022-09-06T05:46:06.408Z,6.72
2022-09-06T05:48:36.788Z,7.95
2022-09-06T05:51:06.284Z,7.70
2022-09-06T05:53:36.560Z,7.43
2022-09-06T05:56:03.873Z,7.30
2022-09-06T05:58:30.588Z,6.90
2022-09-06T06:01:31.282Z,7.47
2022-09-06T06:03:58.882Z,7.70
2022-09-06T06:06:27.457Z,7.30
2022-09-06T06:08:54.379Z,7.88
2022-09-06T06:11:20.944Z,7.32
2022-09-06T06:13:47.364Z,8.32
2022-09-06T06:16:15.890Z,7.95
2022-09-06T06:18:42.417Z,7.82
2022-09-06T06:21:09.479Z,8.35
2022-09-06T06:23:36.116Z,7.72
2022-09-06T06:26:02.751Z,7.72
2022-09-06T06:28:29.229Z,8.60
2022-09-06T06:30:55.703Z,8.63
2022-09-06T06:33:22.141Z,8.93
2022-09-06T06:36:01.672Z,8.77
2022-09-06T06:38:37.475Z,9.32
2022-09-06T06:41:06.979Z,8.55
2022-09-06T06:43:37.502Z,9.05
2022-09-06T06:46:11.033Z,9.70
2022-09-06T06:48:39.664Z,9.35
2022-09-06T06:51:06.279Z,9.63
2022-09-06T06:53:32.844Z,10.60
2022-09-06T06:55:59.410Z,9.65
2022-09-06T06:58:25.953Z,10.00
2022-09-06T07:00:52.417Z,9.48
2022-09-06T07:03:18.944Z,10.38
2022-09-06T07:11:00.180Z,10.02
2022-09-06T07:13:26.639Z,9.38
2022-09-06T07:15:53.079Z,10.27
2022-09-06T07:18:19.559Z,10.05
2022-09-06T07:26:27.947Z,10.48
2022-09-06T07:28:55.650Z,9.20
2022-09-06T07:34:08.768Z,9.77
2022-09-06T07:36:35.323Z,9.50
2022-09-06T07:39:01.791Z,9.82
2022-09-06T07:41:28.194Z,9.07
2022-09-06T07:43:54.759Z,9.23
2022-09-06T07:46:22.041Z,8.95
2022-09-06T07:48:49.636Z,8.20
2022-09-06T07:51:18.050Z,8.45
2022-09-06T07:53:50.550Z,8.10
2022-09-06T07:56:20.310Z,7.63
2022-09-06T07:58:46.805Z,7.57
2022-09-06T08:01:16.030Z,7.60
2022-09-06T08:03:42.580Z,8.48
2022-09-06T08:06:09.913Z,7.60
2022-09-06T08:11:27.350Z,6.65
2022-09-06T08:13:55.548Z,7.80
2022-09-06T08:16:25.200Z,7.68
2022-09-06T08:18:53.478Z,7.93
2022-09-06T08:21:20.852Z,7.32
2022-09-06T08:23:48.938Z,7.47
2022-09-06T08:26:16.678Z,7.35
2022-09-06T08:28:43.430Z,7.32
2022-09-06T08:31:15.034Z,6.85
2022-09-06T08:33:42.426Z,7.10
2022-09-06T08:36:09.607Z,6.82
2022-09-06T08:38:36.360Z,5.55
2022-09-06T08:41:18.185Z,6.30
2022-09-06T08:47:01.176Z,6.30
2022-09-06T08:49:31.354Z,5.32
2022-09-06T08:52:29.970Z,5.72
2022-09-06T08:55:02.025Z,6.00
2022-09-06T08:57:40.609Z,5.15
2022-09-06T09:00:11.304Z,5.70
2022-09-06T09:02:57.459Z,6.10
2022-09-06T09:05:28.379Z,5.35
2022-09-06T09:08:03.838Z,5.40
2022-09-06T09:13:01.324Z,5.88
2022-09-06T09:15:28.819Z,5.55
2022-09-06T09:17:55.517Z,5.10
2022-09-06T09:20:22.048Z,5.40
2022-09-06T09:22:48.651Z,5.57
2022-09-06T09:25:24.706Z,4.20
2022-09-06T09:27:58.240Z,3.85
2022-09-06T09:33:21.906Z,3.42
2022-09-06T09:35:48.638Z,3.80
2022-09-06T09:38:42.592Z,3.78
2022-09-06T09:41:11.003Z,4.13
2022-09-06T09:43:42.312Z,4.40
2022-09-06T09:46:15.960Z,4.20
2022-09-06T09:49:09.575Z,4.03
2022-09-06T09:51:41.736Z,3.42
2022-09-06T09:54:10.616Z,3.42
2022-09-06T09:56:36.889Z,3.85
2022-09-06T09:59:08.330Z,4.15
2022-09-06T10:01:34.764Z,3.97
2022-09-06T10:09:38.893Z,5.20
2022-09-06T10:12:05.608Z,5.05
2022-09-06T10:14:40.708Z,5.57
2022-09-06T10:17:07.225Z,5.05
2022-09-06T10:19:40.985Z,7.10
2022-09-06T10:22:23.720Z,5.80
2022-09-06T10:25:03.371Z,5.57
2022-09-06T10:27:30.980Z,6.22
2022-09-06T10:30:02.164Z,5.50
2022-09-06T10:32:34.550Z,5.95
2022-09-06T10:35:25.025Z,5.32
2022-09-06T10:38:14.377Z,5.30
2022-09-06T10:41:29.503Z,5.63
2022-09-06T10:44:15.986Z,4.00
2022-09-06T10:46:44.917Z,4.40
2022-09-06T10:49:15.900Z,4.07
2022-09-06T10:51:46.797Z,3.72
2022-09-06T10:54:14.092Z,4.20
2022-09-06T10:56:47.560Z,3.78
2022-09-06T10:59:41.918Z,3.58
2022-09-06T11:02:18.895Z,2.95
2022-09-06T11:07:37.949Z,3.88
2022-09-06T11:10:30.834Z,3.00
2022-09-06T11:13:05.208Z,3.30
2022-09-06T11:15:37.579Z,3.45
2022-09-06T11:18:11.953Z,3.65
2022-09-06T11:20:42.487Z,3.28
2022-09-06T11:23:25.886Z,3.55
2022-09-06T11:26:14.769Z,3.78
2022-09-06T11:28:47.160Z,3.42
2022-09-06T11:34:20.160Z,3.53
2022-09-06T11:36:48.681Z,3.60
2022-09-06T11:42:44.125Z,3.35
2022-09-06T11:45:10.413Z,3.95
2022-09-06T11:47:39.852Z,4.35
2022-09-06T11:50:21.521Z,4.07
2022-09-06T11:53:12.906Z,3.78
2022-09-06T11:55:41.354Z,4.68
2022-09-06T11:58:19.998Z,4.13
2022-09-06T12:01:07.209Z,5.60
2022-09-06T12:06:32.407Z,5.80
2022-09-06T12:08:59.394Z,5.55
2022-09-06T12:11:30.486Z,4.75
2022-09-06T12:14:03.008Z,5.90
2022-09-06T12:16:55.640Z,6.82
2022-09-06T12:19:44.468Z,7.82
2022-09-06T12:22:26.418Z,8.00
2022-09-06T12:25:01.685Z,6.82
2022-09-06T12:27:52.601Z,7.00
2022-09-06T12:30:33.102Z,6.82
2022-09-06T12:33:00.295Z,8.27
2022-09-06T12:38:23.929Z,7.88
2022-09-06T12:40:58.434Z,8.30
2022-09-06T12:43:25.212Z,7.63
2022-09-06T12:45:52.476Z,8.30
2022-09-06T12:48:29.756Z,7.03
2022-09-06T12:51:02.423Z,8.63
2022-09-06T12:53:31.417Z,7.32
2022-09-06T12:56:14.406Z,9.40
2022-09-06T12:58:40.859Z,7.55
2022-09-06T13:01:31.252Z,7.05
2022-09-06T13:04:11.909Z,8.25
2022-09-06T13:06:42.312Z,6.72
2022-09-06T13:09:12.150Z,7.95
2022-09-06T13:11:43.523Z,7.97
2022-09-06T13:14:17.920Z,8.38
2022-09-06T13:16:50.348Z,7.57
2022-09-06T13:19:18.960Z,7.13
2022-09-06T13:21:46.895Z,7.63
2022-09-06T13:24:35.314Z,5.78
2022-09-06T13:27:25.647Z,6.80
2022-09-06T13:29:56.723Z,6.75
2022-09-06T13:32:23.355Z,6.15
2022-09-06T13:34:56.628Z,6.80
2022-09-06T13:37:28.783Z,5.65
2022-09-06T13:39:57.443Z,5.97
2022-09-06T13:44:51.108Z,6.25
2022-09-06T13:47:17.527Z,6.00
2022-09-06T13:49:43.931Z,4.63
2022-09-06T13:52:10.465Z,5.38
2022-09-06T13:54:36.901Z,5.05
2022-09-06T13:57:03.408Z,5.05
2022-09-06T13:59:30.429Z,5.45
2022-09-06T14:02:09.709Z,5.03
2022-09-06T14:04:36.903Z,4.53
2022-09-06T14:07:04.117Z,5.47
2022-09-06T14:09:30.653Z,4.53
2022-09-06T14:11:57.095Z,5.78
2022-09-06T14:14:24.379Z,5.15
2022-09-06T14:16:50.920Z,6.35
2022-09-06T14:19:17.352Z,5.05
2022-09-06T14:21:43.775Z,4.82
2022-09-06T14:24:10.238Z,4.72
2022-09-06T14:26:36.850Z,4.82
2022-09-06T14:29:03.653Z,3.75
2022-09-06T14:31:32.450Z,3.83
2022-09-06T14:36:29.136Z,3.45
2022-09-06T14:38:57.574Z,3.97
2022-09-06T14:41:24.021Z,3.42
2022-09-06T14:43:52.434Z,3.70
2022-09-06T14:46:20.134Z,3.35
2022-09-06T14:48:46.934Z,3.60
2022-09-06T14:51:20.769Z,4.10
2022-09-06T14:53:48.790Z,3.92
2022-09-06T14:56:15.764Z,3.28
2022-09-06T14:58:42.802Z,3.15
2022-09-06T15:01:14.426Z,3.40
2022-09-06T15:03:42.883Z,3.92
2022-09-06T15:06:10.508Z,3.60
2022-09-06T15:08:37.911Z,4.70
2022-09-06T15:11:07.946Z,4.10
2022-09-06T15:13:37.011Z,4.03
2022-09-06T15:16:05.106Z,3.85
2022-09-06T15:18:31.810Z,3.30
2022-09-06T15:20:58.221Z,3.38
2022-09-06T15:23:27.262Z,3.92
2022-09-06T15:25:54.127Z,3.28
2022-09-06T15:28:20.628Z,3.40
2022-09-06T15:30:47.638Z,3.40
2022-09-06T15:33:14.980Z,2.92
2022-09-06T15:35:44.810Z,3.15
2022-09-06T15:38:11.902Z,3.40
2022-09-06T15:40:38.850Z,3.33
2022-09-06T15:43:05.352Z,2.72
2022-09-06T15:45:47.147Z,2.85
2022-09-06T15:48:15.824Z,3.60
2022-09-06T15:50:51.303Z,3.30
2022-09-06T15:53:18.710Z,3.45
2022-09-06T15:55:57.275Z,3.33
2022-09-06T15:58:25.123Z,3.08
2022-09-06T16:01:06.763Z,2.90
2022-09-06T16:03:36.931Z,3.35
2022-09-06T16:09:01.627Z,3.33
2022-09-06T16:11:29.723Z,2.95
2022-09-06T16:13:56.348Z,2.92
2022-09-06T16:16:23.095Z,2.90
2022-09-06T16:18:49.637Z,4.25
2022-09-06T16:21:23.781Z,2.72
2022-09-06T16:23:55.097Z,2.90
2022-09-06T16:26:22.748Z,3.17
2022-09-06T16:28:50.439Z,2.78
2022-09-06T16:31:17.487Z,3.00
2022-09-06T16:33:45.470Z,2.90
2022-09-06T16:36:13.793Z,3.10
2022-09-06T16:38:40.502Z,2.72
2022-09-06T16:41:17.169Z,2.80
2022-09-06T16:43:44.680Z,2.72
2022-09-06T16:46:12.017Z,2.90
2022-09-06T16:48:40.505Z,3.05
2022-09-06T16:51:15.858Z,3.13
2022-09-06T16:56:11.204Z,2.80
2022-09-06T16:58:39.040Z,2.90
2022-09-06T17:01:07.736Z,3.10
2022-09-06T17:03:34.967Z,3.03
2022-09-06T17:06:01.421Z,4.57
2022-09-06T17:08:27.948Z,3.03
2022-09-06T17:10:54.777Z,3.22
2022-09-06T17:13:21.179Z,3.13
2022-09-06T17:16:13.535Z,3.03
2022-09-06T17:18:39.970Z,3.15
2022-09-06T17:21:07.409Z,3.05
2022-09-06T17:23:35.324Z,3.42
2022-09-06T17:26:01.997Z,3.13
2022-09-06T17:28:28.737Z,2.85
2022-09-06T17:30:55.328Z,2.97
2022-09-06T17:33:23.654Z,2.83
2022-09-06T17:35:50.053Z,2.90
2022-09-06T17:38:16.454Z,3.03
2022-09-06T17:40:43.399Z,2.78
2022-09-06T17:43:09.975Z,3.10
2022-09-06T17:45:42.409Z,2.97
2022-09-06T17:48:09.088Z,3.33
2022-09-06T17:50:35.483Z,3.45
2022-09-06T17:53:02.127Z,3.08
2022-09-06T17:55:29.116Z,3.30
2022-09-06T17:57:56.507Z,3.00
2022-09-06T18:00:24.012Z,3.03
2022-09-06T18:02:50.420Z,3.10
2022-09-06T18:05:16.994Z,3.30
2022-09-06T18:07:43.446Z,3.33
2022-09-06T18:10:10.555Z,3.17
2022-09-06T18:12:36.957Z,3.05
2022-09-06T18:15:03.478Z,3.03
2022-09-06T18:17:30.553Z,3.10
2022-09-06T18:19:57.620Z,3.10
2022-09-06T18:22:24.348Z,2.97
2022-09-06T18:24:55.024Z,2.63
2022-09-06T18:27:24.029Z,2.92
2022-09-06T18:29:50.453Z,2.85
2022-09-06T18:32:16.844Z,3.13
2022-09-06T18:34:43.250Z,3.22
2022-09-06T18:37:09.631Z,3.65
2022-09-06T18:39:36.094Z,2.85
2022-09-06T18:42:06.991Z,3.03
2022-09-06T18:44:34.244Z,2.83
2022-09-06T18:47:02.429Z,2.90
2022-09-06T18:49:30.000Z,3.00
2022-09-06T18:51:56.485Z,2.92
2022-09-06T18:54:23.013Z,2.92
2022-09-06T18:56:50.102Z,3.22
2022-09-06T18:59:16.908Z,3.45
2022-09-06T19:01:43.489Z,3.42
2022-09-06T19:04:10.739Z,3.97
2022-09-06T19:06:39.352Z,4.60
2022-09-06T19:09:08.575Z,4.75
2022-09-06T19:11:35.279Z,4.93
2022-09-06T19:14:02.263Z,6.05
2022-09-06T19:16:29.435Z,6.13
2022-09-06T19:18:56.744Z,7.15
2022-09-06T19:21:27.679Z,6.72
2022-09-06T19:24:02.496Z,7.32
2022-09-06T19:26:31.596Z,7.55
2022-09-06T19:29:00.105Z,7.15
2022-09-06T19:31:29.879Z,7.22
2022-09-06T19:33:56.488Z,6.88
2022-09-06T19:36:23.794Z,7.55
2022-09-06T19:39:06.338Z,7.43
2022-09-06T19:41:35.921Z,8.70
2022-09-06T19:46:32.052Z,8.93
2022-09-06T19:48:58.748Z,9.13
2022-09-06T19:51:25.537Z,7.97
2022-09-06T19:53:54.061Z,9.00
2022-09-06T19:56:32.544Z,8.20
2022-09-06T19:59:00.998Z,8.20
2022-09-06T20:01:29.574Z,8.38
2022-09-06T20:03:56.713Z,8.80
2022-09-06T20:06:23.324Z,9.13
2022-09-06T20:08:54.961Z,8.68
2022-09-06T20:11:22.646Z,9.27
2022-09-06T20:13:49.185Z,8.80
2022-09-06T20:16:16.258Z,9.18
2022-09-06T20:18:42.848Z,9.45
2022-09-06T20:21:09.935Z,9.73
2022-09-06T20:23:36.658Z,10.40
2022-09-06T20:26:13.373Z,9.00
2022-09-06T20:28:39.864Z,9.50
2022-09-06T20:31:10.821Z,8.98
2022-09-06T20:33:37.759Z,10.63
2022-09-06T20:36:06.433Z,10.40
2022-09-06T20:38:34.695Z,12.70
2022-09-06T20:41:16.178Z,12.45
2022-09-06T20:43:42.703Z,13.90
2022-09-06T20:46:19.641Z,13.93
2022-09-06T20:48:46.753Z,13.75
2022-09-06T20:51:18.555Z,14.05
2022-09-06T20:53:51.453Z,14.15
2022-09-06T20:56:23.880Z,13.75
2022-09-06T20:58:55.497Z,14.85
2022-09-06T21:01:26.872Z,15.65
2022-09-06T21:03:56.062Z,15.50
2022-09-06T21:06:23.279Z,13.02
2022-09-06T21:08:49.762Z,14.48
2022-09-06T21:11:16.345Z,14.40
2022-09-06T21:13:42.780Z,14.75
2022-09-06T21:16:09.534Z,15.27
2022-09-06T21:18:36.219Z,16.00
2022-09-06T21:21:07.788Z,16.10
2022-09-06T21:23:36.826Z,14.85
2022-09-06T21:26:10.973Z,13.73
2022-09-06T21:28:39.717Z,15.07
2022-09-06T21:31:17.743Z,14.10
2022-09-06T21:33:49.565Z,12.43
2022-09-06T21:36:18.266Z,13.73
2022-09-06T21:38:46.743Z,14.07
2022-09-06T21:41:14.704Z,13.02
2022-09-06T21:43:41.471Z,13.27
2022-09-06T21:46:14.458Z,14.48
2022-09-06T21:48:43.663Z,13.93
2022-09-06T21:51:13.492Z,13.70
2022-09-06T21:53:40.681Z,13.48
2022-09-06T21:56:07.361Z,13.82
2022-09-06T21:58:34.046Z,12.85
2022-09-06T22:01:01.412Z,14.50
2022-09-06T22:03:29.856Z,15.38
2022-09-06T22:05:56.276Z,17.00
2022-09-06T22:08:23.447Z,16.17
2022-09-06T22:10:50.215Z,16.27
2022-09-06T22:13:18.396Z,15.60
2022-09-06T22:15:44.980Z,15.88
2022-09-06T22:18:11.968Z,15.20
2022-09-06T22:20:38.645Z,12.68
2022-09-06T22:23:06.448Z,12.95
2022-09-06T22:25:33.747Z,11.32
2022-09-06T22:28:00.505Z,10.80
2022-09-06T22:30:26.964Z,9.32
2022-09-06T22:32:53.848Z,8.77
2022-09-06T22:35:21.095Z,11.57
2022-09-06T22:37:47.486Z,12.18
2022-09-06T22:40:14.039Z,11.55
2022-09-06T22:42:40.419Z,6.50
2022-09-06T22:45:07.249Z,8.50
2022-09-06T22:47:33.813Z,7.32
2022-09-06T22:50:00.208Z,10.38
2022-09-06T22:52:26.646Z,9.77
2022-09-06T22:54:53.042Z,8.25
2022-09-06T22:57:19.462Z,8.45
2022-09-06T22:59:45.855Z,9.30
2022-09-06T23:02:12.237Z,9.70
2022-09-06T23:04:38.697Z,10.07
2022-09-06T23:07:05.918Z,8.95
2022-09-06T23:09:32.300Z,8.85
2022-09-06T23:11:58.690Z,9.30
2022-09-06T23:14:27.844Z,8.32
2022-09-06T23:16:54.302Z,6.43
2022-09-06T23:19:20.685Z,7.75
2022-09-06T23:21:47.071Z,7.47
2022-09-06T23:24:13.570Z,7.60
2022-09-06T23:26:39.992Z,7.13
2022-09-06T23:29:07.231Z,6.88
2022-09-06T23:31:33.690Z,6.93
2022-09-06T23:34:01.264Z,5.88
2022-09-06T23:36:28.496Z,5.32
2022-09-06T23:38:55.777Z,5.65
2022-09-06T23:41:22.692Z,4.97
2022-09-06T23:43:49.513Z,6.18
2022-09-06T23:46:16.206Z,5.90
2022-09-06T23:48:43.400Z,6.15
2022-09-06T23:51:10.527Z,6.15
2022-09-06T23:53:37.031Z,5.38
2022-09-06T23:56:03.815Z,6.20
2022-09-06T23:58:30.348Z,6.38
